createdAt,value
2022-11-12T00:02:49.934Z,19.63
2022-11-12T00:06:12.435Z,21.63
2022-11-12T00:09:33.806Z,29.00
2022-11-12T00:12:55.139Z,21.90
2022-11-12T00:16:16.895Z,19.97
2022-11-12T00:19:38.739Z,17.43
2022-11-12T00:23:02.116Z,24.70
2022-11-12T00:26:24.061Z,17.17
2022-11-12T00:29:46.304Z,21.90
2022-11-12T00:33:08.800Z,17.83
2022-11-12T00:36:30.593Z,17.80
2022-11-12T00:39:53.456Z,14.40
2022-11-12T00:43:14.898Z,17.70
2022-11-12T00:46:36.492Z,19.97
2022-11-12T00:49:58.078Z,25.80
2022-11-12T00:53:19.973Z,15.80
2022-11-12T00:56:43.074Z,19.20
2022-11-12T01:00:07.097Z,17.50
2022-11-12T01:03:29.439Z,15.07
2022-11-12T01:06:50.746Z,19.83
2022-11-12T01:10:13.668Z,16.07
2022-11-12T01:13:41.351Z,22.90
2022-11-12T01:17:05.943Z,14.80
2022-11-12T01:20:27.885Z,12.53
2022-11-12T01:23:49.674Z,17.50
2022-11-12T01:27:11.441Z,14.27
2022-11-12T01:30:37.395Z,14.77
2022-11-12T01:34:01.615Z,15.53
2022-11-12T01:37:23.474Z,17.87
2022-11-12T01:40:45.082Z,16.30
2022-11-12T01:44:17.633Z,12.27
2022-11-12T01:47:40.524Z,11.73
2022-11-12T01:51:04.919Z,11.87
2022-11-12T01:54:27.797Z,15.87
2022-11-12T01:57:54.005Z,14.83
2022-11-12T02:01:15.790Z,12.87
2022-11-12T02:04:41.312Z,15.63
2022-11-12T02:08:05.694Z,15.57
2022-11-12T02:11:27.301Z,17.13
2022-11-12T02:14:47.963Z,15.73
2022-11-12T02:18:10.273Z,16.13
2022-11-12T02:21:34.226Z,13.37
2022-11-12T02:24:58.102Z,12.60
2022-11-12T02:28:19.685Z,17.17
2022-11-12T02:31:43.647Z,18.07
2022-11-12T02:35:06.293Z,14.30
2022-11-12T02:38:29.378Z,12.47
2022-11-12T02:41:50.902Z,19.47
2022-11-12T02:45:13.525Z,15.87
2022-11-12T02:48:35.357Z,15.30
2022-11-12T02:51:57.784Z,13.63
2022-11-12T02:55:20.627Z,16.00
2022-11-12T02:58:42.152Z,13.00
2022-11-12T03:02:03.785Z,12.10
2022-11-12T03:05:26.531Z,12.90
2022-11-12T03:08:48.221Z,14.83
2022-11-12T03:12:11.079Z,18.00
2022-11-12T03:15:33.012Z,14.73
2022-11-12T03:18:55.087Z,17.87
2022-11-12T03:22:16.663Z,12.17
2022-11-12T03:25:39.399Z,17.53
2022-11-12T03:29:02.148Z,16.30
2022-11-12T03:32:23.802Z,11.87
2022-11-12T03:35:45.860Z,17.23
2022-11-12T03:39:07.451Z,13.07
2022-11-12T03:42:29.041Z,13.37
2022-11-12T03:45:51.823Z,12.93
2022-11-12T03:49:13.182Z,11.33
2022-11-12T03:52:35.282Z,15.20
2022-11-12T03:55:57.102Z,13.47
2022-11-12T03:59:21.200Z,16.83
2022-11-12T04:02:44.696Z,12.57
2022-11-12T04:06:25.095Z,13.10
2022-11-12T04:09:46.634Z,12.67
2022-11-12T04:13:25.907Z,18.10
2022-11-12T04:17:05.273Z,17.13
2022-11-12T04:20:45.928Z,13.90
2022-11-12T04:24:08.043Z,15.80
2022-11-12T04:27:31.363Z,15.87
2022-11-12T04:30:53.182Z,13.83
2022-11-12T04:34:29.904Z,19.90
2022-11-12T04:37:53.566Z,15.40
2022-11-12T04:41:33.536Z,16.03
2022-11-12T04:45:02.627Z,16.27
2022-11-12T04:48:26.414Z,15.90
2022-11-12T04:52:06.769Z,18.33
2022-11-12T04:55:29.395Z,13.07
2022-11-12T04:58:50.698Z,17.30
2022-11-12T05:02:12.247Z,14.83
2022-11-12T05:05:34.310Z,12.50
2022-11-12T05:08:56.512Z,15.07
2022-11-12T05:12:19.727Z,19.47
2022-11-12T05:15:41.300Z,15.43
2022-11-12T05:19:02.915Z,14.30
2022-11-12T05:22:42.834Z,15.10
2022-11-12T05:26:06.981Z,15.60
2022-11-12T05:29:29.563Z,12.33
2022-11-12T05:32:51.008Z,15.50
2022-11-12T05:36:12.529Z,12.33
2022-11-12T05:39:33.976Z,13.40
2022-11-12T05:42:55.543Z,14.53
2022-11-12T05:46:18.234Z,12.67
2022-11-12T05:49:40.021Z,13.27
2022-11-12T05:53:01.339Z,15.47
2022-11-12T05:56:22.870Z,16.13
2022-11-12T05:59:44.609Z,12.63
2022-11-12T06:03:07.550Z,15.73
2022-11-12T06:06:29.401Z,10.57
2022-11-12T06:09:50.871Z,14.20
2022-11-12T06:13:12.843Z,14.73
2022-11-12T06:16:34.485Z,16.57
2022-11-12T06:19:57.587Z,13.47
2022-11-12T06:23:19.122Z,16.33
2022-11-12T06:26:40.617Z,14.70
2022-11-12T06:30:01.955Z,10.60
2022-11-12T06:33:23.806Z,14.20
2022-11-12T06:36:48.699Z,15.07
2022-11-12T06:40:10.813Z,18.17
2022-11-12T06:43:34.464Z,15.93
2022-11-12T06:46:55.920Z,12.37
2022-11-12T06:50:17.894Z,20.07
2022-11-12T06:53:40.866Z,17.00
2022-11-12T06:57:02.239Z,16.13
2022-11-12T07:00:24.206Z,16.30
2022-11-12T07:03:45.954Z,16.67
2022-11-12T07:07:10.610Z,15.53
2022-11-12T07:10:34.408Z,17.10
2022-11-12T07:13:56.028Z,18.00
2022-11-12T07:17:17.747Z,12.23
2022-11-12T07:20:39.492Z,17.67
2022-11-12T07:24:00.950Z,18.20
2022-11-12T07:27:23.713Z,16.90
2022-11-12T07:30:45.506Z,18.57
2022-11-12T07:34:07.076Z,17.87
2022-11-12T07:37:28.662Z,19.70
2022-11-12T07:40:51.007Z,20.83
2022-11-12T07:44:14.329Z,22.70
2022-11-12T07:47:35.722Z,30.77
2022-11-12T07:51:02.682Z,21.87
2022-11-12T07:54:24.464Z,28.17
2022-11-12T07:57:46.164Z,26.13
2022-11-12T08:01:20.799Z,17.03
2022-11-12T08:04:42.869Z,20.37
2022-11-12T08:08:04.692Z,20.73
2022-11-12T08:11:26.721Z,17.27
2022-11-12T08:14:48.366Z,17.07
2022-11-12T08:18:11.185Z,18.10
2022-11-12T08:21:32.803Z,23.03
2022-11-12T08:24:54.384Z,18.50
2022-11-12T08:28:15.910Z,18.13
2022-11-12T08:31:38.142Z,16.97
2022-11-12T08:35:00.986Z,22.40
2022-11-12T08:38:22.310Z,21.03
2022-11-12T08:41:43.873Z,15.83
2022-11-12T08:45:06.700Z,19.87
2022-11-12T08:48:30.679Z,19.10
2022-11-12T08:51:53.577Z,16.20
2022-11-12T08:55:15.478Z,19.00
2022-11-12T08:58:37.185Z,19.23
2022-11-12T09:01:58.800Z,21.73
2022-11-12T09:05:20.601Z,19.83
2022-11-12T09:08:44.369Z,20.87
2022-11-12T09:12:15.053Z,20.33
2022-11-12T09:15:39.701Z,18.97
2022-11-12T09:19:01.034Z,21.83
2022-11-12T09:22:22.411Z,17.80
2022-11-12T09:25:45.611Z,17.33
2022-11-12T09:29:07.287Z,18.23
2022-11-12T09:32:28.672Z,18.27
2022-11-12T09:35:51.352Z,21.63
2022-11-12T09:39:12.771Z,26.90
2022-11-12T09:42:37.638Z,24.37
2022-11-12T09:46:27.373Z,29.80
2022-11-12T09:49:57.056Z,22.27
2022-11-12T09:53:24.162Z,21.47
2022-11-12T09:56:45.885Z,26.03
2022-11-12T10:00:17.862Z,24.90
2022-11-12T10:03:47.675Z,22.97
2022-11-12T10:07:21.103Z,28.30
2022-11-12T10:10:48.211Z,24.87
2022-11-12T10:14:20.278Z,23.47
2022-11-12T10:17:51.804Z,25.50
2022-11-12T10:21:23.845Z,24.47
2022-11-12T10:24:46.596Z,22.00
2022-11-12T10:28:20.909Z,25.90
2022-11-12T10:31:42.359Z,29.83
2022-11-12T10:35:05.748Z,23.93
2022-11-12T10:38:29.883Z,27.23
2022-11-12T10:42:06.054Z,22.03
2022-11-12T10:45:28.146Z,28.13
2022-11-12T10:48:58.304Z,24.40
2022-11-12T10:52:25.777Z,26.47
2022-11-12T10:56:00.201Z,21.23
2022-11-12T10:59:23.199Z,22.17
2022-11-12T11:02:50.829Z,24.37
2022-11-12T11:06:23.291Z,20.40
2022-11-12T11:09:56.419Z,18.80
2022-11-12T11:13:22.228Z,19.63
2022-11-12T11:16:52.399Z,20.27
2022-11-12T11:20:49.876Z,21.00
2022-11-12T11:24:39.999Z,17.80
2022-11-12T11:28:16.219Z,25.90
2022-11-12T11:31:48.535Z,17.97
2022-11-12T11:35:26.119Z,20.03
2022-11-12T11:39:00.413Z,18.73
2022-11-12T11:42:47.749Z,18.80
2022-11-12T11:46:27.573Z,17.03
2022-11-12T11:50:10.908Z,16.20
2022-11-12T11:53:42.475Z,19.13
2022-11-12T11:57:13.712Z,16.30
2022-11-12T12:00:46.564Z,14.73
2022-11-12T12:04:33.770Z,16.50
2022-11-12T12:08:03.600Z,17.75
2022-11-12T12:11:32.518Z,17.90
2022-11-12T12:15:23.325Z,17.52
2022-11-12T12:18:53.528Z,15.50
2022-11-12T12:22:35.884Z,15.48
2022-11-12T12:26:04.403Z,14.15
2022-11-12T12:29:34.897Z,14.18
2022-11-12T12:33:01.322Z,17.65
2022-11-12T12:36:36.407Z,24.02
2022-11-12T12:40:10.021Z,16.50
2022-11-12T12:43:40.967Z,18.35
2022-11-12T12:47:03.789Z,15.90
2022-11-12T12:50:28.665Z,15.82
2022-11-12T12:53:50.435Z,13.60
2022-11-12T12:57:33.762Z,19.23
2022-11-12T13:01:05.551Z,16.27
2022-11-12T13:04:57.013Z,15.88
2022-11-12T13:08:27.276Z,21.80
2022-11-12T13:12:11.860Z,17.55
2022-11-12T13:15:46.085Z,16.90
2022-11-12T13:19:08.913Z,16.35
2022-11-12T13:22:51.687Z,16.73
2022-11-12T13:26:49.503Z,21.98
2022-11-12T13:30:50.362Z,18.95
2022-11-12T13:34:22.741Z,15.38
2022-11-12T13:37:45.708Z,17.35
2022-11-12T13:41:16.829Z,14.40
2022-11-12T13:44:38.315Z,13.10
2022-11-12T13:48:00.350Z,15.32
2022-11-12T13:51:37.599Z,11.07
2022-11-12T13:55:03.310Z,13.73
2022-11-12T13:58:30.392Z,14.48
2022-11-12T14:01:52.785Z,14.93
2022-11-12T14:05:17.822Z,11.40
2022-11-12T14:09:26.543Z,11.73
2022-11-12T14:13:07.008Z,12.43
2022-11-12T14:16:41.880Z,11.03
2022-11-12T14:20:32.821Z,11.97
2022-11-12T14:24:05.751Z,11.40
2022-11-12T14:27:37.510Z,10.03
2022-11-12T14:31:03.335Z,15.40
2022-11-12T14:34:30.400Z,12.10
2022-11-12T14:37:55.929Z,16.73
2022-11-12T14:41:22.315Z,10.97
2022-11-12T14:44:47.450Z,11.13
2022-11-12T14:48:10.777Z,13.07
2022-11-12T14:51:40.098Z,10.87
2022-11-12T14:55:17.022Z,12.47
2022-11-12T14:58:40.996Z,10.90
2022-11-12T15:02:30.451Z,13.90
2022-11-12T15:06:01.161Z,13.73
2022-11-12T15:09:36.237Z,18.87
2022-11-12T15:13:04.600Z,13.73
2022-11-12T15:16:29.717Z,17.07
2022-11-12T15:19:52.662Z,15.57
2022-11-12T15:23:19.587Z,15.43
2022-11-12T15:26:43.835Z,16.43
2022-11-12T15:30:23.531Z,13.70
2022-11-12T15:33:45.158Z,12.93
2022-11-12T15:37:11.871Z,15.83
2022-11-12T15:40:34.384Z,11.37
2022-11-12T15:43:56.196Z,14.27
2022-11-12T15:47:22.501Z,16.93
2022-11-12T15:50:44.538Z,14.67
2022-11-12T15:54:07.508Z,11.90
2022-11-12T15:57:32.487Z,13.73
2022-11-12T16:00:56.636Z,18.27
2022-11-12T16:04:18.905Z,15.90
2022-11-12T16:07:40.973Z,17.07
2022-11-12T16:11:24.263Z,16.57
2022-11-12T16:14:46.336Z,19.87
2022-11-12T16:18:12.105Z,16.83
2022-11-12T16:21:34.543Z,18.97
2022-11-12T16:24:55.964Z,15.33
2022-11-12T16:28:20.153Z,23.30
2022-11-12T16:31:43.823Z,19.10
2022-11-12T16:35:06.267Z,22.43
2022-11-12T16:38:27.728Z,23.93
2022-11-12T16:41:49.294Z,18.20
2022-11-12T16:45:13.299Z,18.67
2022-11-12T16:48:39.058Z,22.63
2022-11-12T16:52:00.858Z,24.83
2022-11-12T16:55:23.063Z,16.33
2022-11-12T16:58:44.729Z,18.57
2022-11-12T17:02:15.079Z,21.87
2022-11-12T17:05:36.798Z,18.77
2022-11-12T17:08:58.160Z,19.57
2022-11-12T17:12:19.958Z,18.20
2022-11-12T17:15:41.467Z,18.73
2022-11-12T17:19:05.412Z,20.73
2022-11-12T17:22:27.552Z,26.40
2022-11-12T17:25:49.193Z,25.97
2022-11-12T17:29:10.756Z,27.67
2022-11-12T17:32:33.558Z,24.10
2022-11-12T17:36:01.761Z,23.43
2022-11-12T17:39:23.720Z,32.60
2022-11-12T17:42:46.563Z,29.33
2022-11-12T17:46:10.734Z,29.00
2022-11-12T17:49:33.054Z,25.63
2022-11-12T17:52:55.853Z,27.40
2022-11-12T17:56:19.759Z,26.97
2022-11-12T17:59:41.827Z,31.73
2022-11-12T18:03:03.911Z,38.73
2022-11-12T18:06:27.974Z,34.33
2022-11-12T18:09:50.722Z,54.00
2022-11-12T18:13:13.052Z,36.50
2022-11-12T18:16:34.719Z,37.17
2022-11-12T18:19:56.301Z,31.10
2022-11-12T18:23:17.859Z,39.33
2022-11-12T18:26:40.793Z,30.17
2022-11-12T18:30:02.312Z,29.03
2022-11-12T18:33:23.995Z,31.77
2022-11-12T18:36:45.333Z,36.83
2022-11-12T18:40:08.257Z,30.30
2022-11-12T18:43:31.956Z,30.97
2022-11-12T18:46:53.960Z,31.47
2022-11-12T18:50:16.109Z,35.97
2022-11-12T18:53:39.464Z,42.57
2022-11-12T18:57:01.284Z,44.17
2022-11-12T19:00:24.655Z,43.13
2022-11-12T19:03:46.089Z,47.23
2022-11-12T19:07:07.730Z,45.17
2022-11-12T19:10:29.320Z,40.23
2022-11-12T19:13:52.402Z,36.93
2022-11-12T19:17:15.638Z,45.50
2022-11-12T19:20:37.386Z,47.57
2022-11-12T19:24:00.349Z,43.63
2022-11-12T19:27:25.782Z,44.33
2022-11-12T19:30:47.535Z,46.40
2022-11-12T19:34:10.681Z,50.17
2022-11-12T19:37:34.109Z,59.07
2022-11-12T19:40:56.502Z,53.67
2022-11-12T19:44:17.888Z,56.70
2022-11-12T19:47:39.365Z,57.87
2022-11-12T19:51:04.467Z,60.87
2022-11-12T19:54:26.012Z,56.17
2022-11-12T19:57:47.502Z,60.67
2022-11-12T20:01:11.713Z,58.80
2022-11-12T20:04:33.284Z,52.50
2022-11-12T20:07:56.013Z,55.77
2022-11-12T20:11:18.894Z,48.13
2022-11-12T20:14:41.486Z,52.20
2022-11-12T20:18:02.861Z,57.93
2022-11-12T20:21:24.241Z,56.50
2022-11-12T20:24:47.233Z,49.30
2022-11-12T20:28:08.800Z,62.30
2022-11-12T20:31:30.733Z,59.43
2022-11-12T20:34:52.414Z,47.90
2022-11-12T20:38:14.006Z,50.87
2022-11-12T20:41:37.558Z,55.90
2022-11-12T20:44:59.222Z,58.97
2022-11-12T20:48:22.289Z,49.00
2022-11-12T20:51:44.055Z,51.27
2022-11-12T20:55:06.591Z,53.70
2022-11-12T20:58:30.809Z,52.63
2022-11-12T21:01:57.464Z,54.93
2022-11-12T21:05:19.641Z,53.97
2022-11-12T21:08:41.905Z,57.27
2022-11-12T21:12:03.874Z,56.40
2022-11-12T21:15:26.716Z,50.17
2022-11-12T21:18:48.271Z,63.13
2022-11-12T21:22:09.988Z,57.10
2022-11-12T21:25:31.553Z,54.90
2022-11-12T21:28:55.545Z,57.90
2022-11-12T21:32:18.576Z,55.07
2022-11-12T21:35:43.043Z,48.23
2022-11-12T21:39:05.529Z,58.80
2022-11-12T21:42:27.276Z,58.37
2022-11-12T21:45:49.369Z,51.27
2022-11-12T21:49:12.172Z,58.03
2022-11-12T21:52:33.476Z,48.67
2022-11-12T21:55:55.121Z,49.70
2022-11-12T21:59:16.528Z,58.03
2022-11-12T22:02:38.127Z,50.13
2022-11-12T22:06:01.670Z,50.90
2022-11-12T22:09:23.562Z,49.13
2022-11-12T22:13:04.846Z,53.80
2022-11-12T22:16:29.843Z,50.87
2022-11-12T22:19:51.673Z,62.73
2022-11-12T22:23:14.817Z,57.40
2022-11-12T22:26:36.588Z,64.43
2022-11-12T22:29:58.156Z,63.00
2022-11-12T22:33:19.562Z,59.80
2022-11-12T22:36:41.398Z,56.87
2022-11-12T22:40:09.154Z,69.17
2022-11-12T22:43:33.985Z,56.70
2022-11-12T22:46:55.643Z,48.93
2022-11-12T22:50:17.176Z,55.77
2022-11-12T22:53:38.798Z,52.20
2022-11-12T22:57:01.550Z,55.43
2022-11-12T23:00:31.662Z,64.80
2022-11-12T23:03:56.802Z,51.93
2022-11-12T23:07:18.406Z,56.27
2022-11-12T23:10:45.457Z,52.30
2022-11-12T23:14:08.629Z,51.63
2022-11-12T23:17:30.095Z,47.73
2022-11-12T23:20:51.579Z,48.57
2022-11-12T23:24:14.252Z,52.27
2022-11-12T23:27:36.616Z,47.03
2022-11-12T23:30:59.687Z,49.07
2022-11-12T23:34:21.416Z,48.57
2022-11-12T23:37:43.620Z,47.70
2022-11-12T23:41:06.119Z,51.10
2022-11-12T23:44:27.714Z,47.73
2022-11-12T23:47:50.890Z,44.17
2022-11-12T23:51:18.997Z,44.63
2022-11-12T23:54:40.783Z,44.77
2022-11-12T23:58:05.701Z,41.20
